sensor_id;sensor_type;location;lat;lon;timestamp;temperature;humidity
6291;DHT22;3178;48.730;8.990;2023-01-16T00:00:57;1.80;99.90
6291;DHT22;3178;48.730;8.990;2023-01-16T00:03:23;1.90;99.90
6291;DHT22;3178;48.730;8.990;2023-01-16T00:05:49;1.90;99.90
6291;DHT22;3178;48.730;8.990;2023-01-16T00:08:14;2.00;99.90
6291;DHT22;3178;48.730;8.990;2023-01-16T00:10:40;2.00;99.90
6291;DHT22;3178;48.730;8.990;2023-01-16T00:13:06;2.00;99.90
6291;DHT22;3178;48.730;8.990;2023-01-16T00:15:32;2.10;99.90
6291;DHT22;3178;48.730;8.990;2023-01-16T00:17:58;2.10;99.90
6291;DHT22;3178;48.730;8.990;2023-01-16T00:20:24;2.10;99.90
6291;DHT22;3178;48.730;8.990;2023-01-16T00:22:49;2.20;99.90
6291;DHT22;3178;48.730;8.990;2023-01-16T00:25:15;2.20;99.90
6291;DHT22;3178;48.730;8.990;2023-01-16T00:27:40;2.20;99.90
6291;DHT22;3178;48.730;8.990;2023-01-16T00:30:06;2.20;99.90
6291;DHT22;3178;48.730;8.990;2023-01-16T00:32:33;2.20;99.90
6291;DHT22;3178;48.730;8.990;2023-01-16T00:34:58;2.20;99.90
6291;DHT22;3178;48.730;8.990;2023-01-16T00:37:24;2.20;99.90
6291;DHT22;3178;48.730;8.990;2023-01-16T00:39:49;2.20;99.90
6291;DHT22;3178;48.730;8.990;2023-01-16T00:42:17;2.20;99.90
6291;DHT22;3178;48.730;8.990;2023-01-16T00:44:42;2.20;99.90
6291;DHT22;3178;48.730;8.990;2023-01-16T00:47:08;2.20;99.90
6291;DHT22;3178;48.730;8.990;2023-01-16T00:49:34;2.20;99.90
6291;DHT22;3178;48.730;8.990;2023-01-16T00:51:59;2.20;99.90
6291;DHT22;3178;48.730;8.990;2023-01-16T00:54:25;2.20;99.90
6291;DHT22;3178;48.730;8.990;2023-01-16T00:56:50;2.10;99.90
6291;DHT22;3178;48.730;8.990;2023-01-16T00:59:16;2.10;99.90
6291;DHT22;3178;48.730;8.990;2023-01-16T01:01:41;2.10;99.90
6291;DHT22;3178;48.730;8.990;2023-01-16T01:04:07;2.00;99.90
6291;DHT22;3178;48.730;8.990;2023-01-16T01:06:33;1.90;99.90
6291;DHT22;3178;48.730;8.990;2023-01-16T01:08:58;2.00;99.90
6291;DHT22;3178;48.730;8.990;2023-01-16T01:11:24;1.90;99.90
6291;DHT22;3178;48.730;8.990;2023-01-16T01:13:49;1.90;99.90
6291;DHT22;3178;48.730;8.990;2023-01-16T01:16:15;1.90;99.90
6291;DHT22;3178;48.730;8.990;2023-01-16T01:18:41;1.90;99.90
6291;DHT22;3178;48.730;8.990;2023-01-16T01:21:07;1.90;99.90
6291;DHT22;3178;48.730;8.990;2023-01-16T01:23:33;1.90;99.90
6291;DHT22;3178;48.730;8.990;2023-01-16T01:25:58;1.90;99.90
6291;DHT22;3178;48.730;8.990;2023-01-16T01:28:29;1.80;99.90
6291;DHT22;3178;48.730;8.990;2023-01-16T01:30:55;1.80;99.90
6291;DHT22;3178;48.730;8.990;2023-01-16T01:33:20;1.80;99.90
6291;DHT22;3178;48.730;8.990;2023-01-16T01:35:46;1.80;99.90
6291;DHT22;3178;48.730;8.990;2023-01-16T01:38:11;1.80;99.90
6291;DHT22;3178;48.730;8.990;2023-01-16T01:40:37;1.80;99.90
6291;DHT22;3178;48.730;8.990;2023-01-16T01:43:03;1.80;99.90
6291;DHT22;3178;48.730;8.990;2023-01-16T01:45:30;1.80;99.90
6291;DHT22;3178;48.730;8.990;2023-01-16T01:50:44;1.80;99.90
6291;DHT22;3178;48.730;8.990;2023-01-16T01:53:31;1.80;99.90
6291;DHT22;3178;48.730;8.990;2023-01-16T01:56:01;1.80;99.90
6291;DHT22;3178;48.730;8.990;2023-01-16T01:58:31;1.90;99.90
6291;DHT22;3178;48.730;8.990;2023-01-16T02:00:59;1.80;99.90
6291;DHT22;3178;48.730;8.990;2023-01-16T02:03:37;1.80;99.90
6291;DHT22;3178;48.730;8.990;2023-01-16T02:06:07;1.80;99.90
6291;DHT22;3178;48.730;8.990;2023-01-16T02:08:34;1.90;99.90
6291;DHT22;3178;48.730;8.990;2023-01-16T02:11:13;1.90;99.90
6291;DHT22;3178;48.730;8.990;2023-01-16T02:13:53;1.90;99.90
6291;DHT22;3178;48.730;8.990;2023-01-16T02:16:19;1.90;99.90
6291;DHT22;3178;48.730;8.990;2023-01-16T02:19:03;1.90;99.90
6291;DHT22;3178;48.730;8.990;2023-01-16T02:21:57;1.90;99.90
6291;DHT22;3178;48.730;8.990;2023-01-16T02:36:08;1.90;99.90
6291;DHT22;3178;48.730;8.990;2023-01-16T02:41:40;1.90;99.90
6291;DHT22;3178;48.730;8.990;2023-01-16T02:47:25;1.90;99.90
6291;DHT22;3178;48.730;8.990;2023-01-16T02:50:11;2.00;99.90
6291;DHT22;3178;48.730;8.990;2023-01-16T02:55:34;2.00;99.90
6291;DHT22;3178;48.730;8.990;2023-01-16T02:58:04;2.10;99.90
6291;DHT22;3178;48.730;8.990;2023-01-16T03:00:30;2.10;99.90
6291;DHT22;3178;48.730;8.990;2023-01-16T03:02:56;2.20;99.90
6291;DHT22;3178;48.730;8.990;2023-01-16T03:05:22;2.20;99.90
6291;DHT22;3178;48.730;8.990;2023-01-16T03:16:14;2.30;99.90
6291;DHT22;3178;48.730;8.990;2023-01-16T03:19:21;2.30;99.90
6291;DHT22;3178;48.730;8.990;2023-01-16T03:27:47;2.40;99.90
6291;DHT22;3178;48.730;8.990;2023-01-16T03:30:31;2.40;99.90
6291;DHT22;3178;48.730;8.990;2023-01-16T03:33:50;2.30;99.90
6291;DHT22;3178;48.730;8.990;2023-01-16T03:35:59;2.30;99.90
6291;DHT22;3178;48.730;8.990;2023-01-16T03:38:29;2.40;99.90
6291;DHT22;3178;48.730;8.990;2023-01-16T03:40:57;2.30;99.90
6291;DHT22;3178;48.730;8.990;2023-01-16T03:43:36;2.40;99.90
6291;DHT22;3178;48.730;8.990;2023-01-16T03:46:12;2.40;99.90
6291;DHT22;3178;48.730;8.990;2023-01-16T03:48:41;2.40;99.90
6291;DHT22;3178;48.730;8.990;2023-01-16T03:51:11;2.40;99.90
6291;DHT22;3178;48.730;8.990;2023-01-16T03:53:45;2.40;99.90
6291;DHT22;3178;48.730;8.990;2023-01-16T03:56:26;2.50;99.90
6291;DHT22;3178;48.730;8.990;2023-01-16T03:58:53;2.50;99.90
6291;DHT22;3178;48.730;8.990;2023-01-16T04:04:18;2.50;99.90
6291;DHT22;3178;48.730;8.990;2023-01-16T04:06:57;2.50;99.90
6291;DHT22;3178;48.730;8.990;2023-01-16T04:09:48;2.50;99.90
6291;DHT22;3178;48.730;8.990;2023-01-16T04:12:18;2.50;99.90
6291;DHT22;3178;48.730;8.990;2023-01-16T04:14:48;2.50;99.90
6291;DHT22;3178;48.730;8.990;2023-01-16T04:17:16;2.50;99.90
6291;DHT22;3178;48.730;8.990;2023-01-16T04:19:43;2.40;99.90
6291;DHT22;3178;48.730;8.990;2023-01-16T04:22:21;2.40;99.90
6291;DHT22;3178;48.730;8.990;2023-01-16T04:24:49;2.40;99.90
6291;DHT22;3178;48.730;8.990;2023-01-16T04:27:16;2.40;99.90
6291;DHT22;3178;48.730;8.990;2023-01-16T04:29:41;2.30;99.90
6291;DHT22;3178;48.730;8.990;2023-01-16T04:32:07;2.30;99.90
6291;DHT22;3178;48.730;8.990;2023-01-16T04:34:32;2.30;99.90
6291;DHT22;3178;48.730;8.990;2023-01-16T04:36:58;2.20;99.90
6291;DHT22;3178;48.730;8.990;2023-01-16T04:39:23;2.20;99.90
6291;DHT22;3178;48.730;8.990;2023-01-16T04:41:49;2.20;99.90
6291;DHT22;3178;48.730;8.990;2023-01-16T04:44:16;2.20;99.90
6291;DHT22;3178;48.730;8.990;2023-01-16T04:46:42;2.20;99.90
6291;DHT22;3178;48.730;8.990;2023-01-16T04:49:08;2.20;99.90
6291;DHT22;3178;48.730;8.990;2023-01-16T04:51:35;2.20;99.90
6291;DHT22;3178;48.730;8.990;2023-01-16T04:54:00;2.20;99.90
6291;DHT22;3178;48.730;8.990;2023-01-16T04:56:27;2.20;99.90
6291;DHT22;3178;48.730;8.990;2023-01-16T04:58:52;2.20;99.90
6291;DHT22;3178;48.730;8.990;2023-01-16T05:01:19;2.20;99.90
6291;DHT22;3178;48.730;8.990;2023-01-16T05:03:45;2.10;99.90
6291;DHT22;3178;48.730;8.990;2023-01-16T05:06:10;2.10;99.90
6291;DHT22;3178;48.730;8.990;2023-01-16T05:08:36;2.10;99.90
6291;DHT22;3178;48.730;8.990;2023-01-16T05:11:01;2.10;99.90
6291;DHT22;3178;48.730;8.990;2023-01-16T05:13:28;2.10;99.90
6291;DHT22;3178;48.730;8.990;2023-01-16T05:15:54;2.10;99.90
6291;DHT22;3178;48.730;8.990;2023-01-16T05:18:20;2.10;99.90
6291;DHT22;3178;48.730;8.990;2023-01-16T05:20:45;2.10;99.90
6291;DHT22;3178;48.730;8.990;2023-01-16T05:23:11;2.10;99.90
6291;DHT22;3178;48.730;8.990;2023-01-16T05:25:38;2.10;99.90
6291;DHT22;3178;48.730;8.990;2023-01-16T05:28:03;2.10;99.90
6291;DHT22;3178;48.730;8.990;2023-01-16T05:30:29;2.10;99.90
6291;DHT22;3178;48.730;8.990;2023-01-16T05:32:55;2.10;99.90
6291;DHT22;3178;48.730;8.990;2023-01-16T05:35:21;2.20;99.90
6291;DHT22;3178;48.730;8.990;2023-01-16T05:37:46;2.20;99.90
6291;DHT22;3178;48.730;8.990;2023-01-16T05:40:12;2.20;99.90
6291;DHT22;3178;48.730;8.990;2023-01-16T05:42:38;2.20;99.90
6291;DHT22;3178;48.730;8.990;2023-01-16T05:45:07;2.30;99.90
6291;DHT22;3178;48.730;8.990;2023-01-16T05:47:32;2.30;99.90
6291;DHT22;3178;48.730;8.990;2023-01-16T05:49:58;2.20;99.90
6291;DHT22;3178;48.730;8.990;2023-01-16T05:52:25;2.30;99.90
6291;DHT22;3178;48.730;8.990;2023-01-16T05:54:51;2.30;99.90
6291;DHT22;3178;48.730;8.990;2023-01-16T05:57:17;2.30;99.90
6291;DHT22;3178;48.730;8.990;2023-01-16T05:59:42;2.30;99.90
6291;DHT22;3178;48.730;8.990;2023-01-16T06:02:11;2.30;99.90
6291;DHT22;3178;48.730;8.990;2023-01-16T06:04:37;2.30;99.90
6291;DHT22;3178;48.730;8.990;2023-01-16T06:07:03;2.30;99.90
6291;DHT22;3178;48.730;8.990;2023-01-16T06:09:28;2.20;99.90
6291;DHT22;3178;48.730;8.990;2023-01-16T06:11:54;2.30;99.90
6291;DHT22;3178;48.730;8.990;2023-01-16T06:14:20;2.20;99.90
6291;DHT22;3178;48.730;8.990;2023-01-16T06:16:45;2.20;99.90
6291;DHT22;3178;48.730;8.990;2023-01-16T06:19:11;2.30;99.90
6291;DHT22;3178;48.730;8.990;2023-01-16T06:21:36;2.30;99.90
6291;DHT22;3178;48.730;8.990;2023-01-16T06:24:02;2.30;99.90
6291;DHT22;3178;48.730;8.990;2023-01-16T06:26:27;2.30;99.90
6291;DHT22;3178;48.730;8.990;2023-01-16T06:28:53;2.40;99.90
6291;DHT22;3178;48.730;8.990;2023-01-16T06:31:21;2.40;99.90
6291;DHT22;3178;48.730;8.990;2023-01-16T06:33:47;2.40;99.90
6291;DHT22;3178;48.730;8.990;2023-01-16T06:36:12;2.40;99.90
6291;DHT22;3178;48.730;8.990;2023-01-16T06:38:38;2.40;99.90
6291;DHT22;3178;48.730;8.990;2023-01-16T06:41:03;2.40;99.90
6291;DHT22;3178;48.730;8.990;2023-01-16T06:43:29;2.40;99.90
6291;DHT22;3178;48.730;8.990;2023-01-16T06:45:54;2.50;99.90
6291;DHT22;3178;48.730;8.990;2023-01-16T06:48:20;2.50;99.90
6291;DHT22;3178;48.730;8.990;2023-01-16T06:50:46;2.50;99.90
6291;DHT22;3178;48.730;8.990;2023-01-16T06:53:12;2.50;99.90
6291;DHT22;3178;48.730;8.990;2023-01-16T06:55:39;2.60;99.90
6291;DHT22;3178;48.730;8.990;2023-01-16T06:58:05;2.60;99.90
6291;DHT22;3178;48.730;8.990;2023-01-16T07:00:30;2.60;99.90
6291;DHT22;3178;48.730;8.990;2023-01-16T07:02:56;2.60;99.90
6291;DHT22;3178;48.730;8.990;2023-01-16T07:05:24;2.60;99.90
6291;DHT22;3178;48.730;8.990;2023-01-16T07:07:50;2.60;99.90
6291;DHT22;3178;48.730;8.990;2023-01-16T07:10:16;2.60;99.90
6291;DHT22;3178;48.730;8.990;2023-01-16T07:12:42;2.60;99.90
6291;DHT22;3178;48.730;8.990;2023-01-16T07:15:08;2.70;99.90
6291;DHT22;3178;48.730;8.990;2023-01-16T07:17:52;2.60;99.90
6291;DHT22;3178;48.730;8.990;2023-01-16T07:20:37;2.60;99.90
6291;DHT22;3178;48.730;8.990;2023-01-16T07:23:28;2.60;99.90
6291;DHT22;3178;48.730;8.990;2023-01-16T07:25:59;2.60;99.90
6291;DHT22;3178;48.730;8.990;2023-01-16T07:28:25;2.60;99.90
6291;DHT22;3178;48.730;8.990;2023-01-16T07:30:51;2.60;99.90
6291;DHT22;3178;48.730;8.990;2023-01-16T07:33:17;2.60;99.90
6291;DHT22;3178;48.730;8.990;2023-01-16T07:35:42;2.60;99.90
6291;DHT22;3178;48.730;8.990;2023-01-16T07:38:09;2.60;99.90
6291;DHT22;3178;48.730;8.990;2023-01-16T07:40:34;2.60;99.90
6291;DHT22;3178;48.730;8.990;2023-01-16T07:43:00;2.60;99.90
6291;DHT22;3178;48.730;8.990;2023-01-16T07:45:25;2.60;99.90
6291;DHT22;3178;48.730;8.990;2023-01-16T07:47:51;2.60;99.90
6291;DHT22;3178;48.730;8.990;2023-01-16T07:50:16;2.60;99.90
6291;DHT22;3178;48.730;8.990;2023-01-16T07:52:43;2.60;99.90
6291;DHT22;3178;48.730;8.990;2023-01-16T07:55:09;2.70;99.90
6291;DHT22;3178;48.730;8.990;2023-01-16T07:57:36;2.70;99.90
6291;DHT22;3178;48.730;8.990;2023-01-16T08:00:03;2.70;99.90
6291;DHT22;3178;48.730;8.990;2023-01-16T08:02:29;2.70;99.90
6291;DHT22;3178;48.730;8.990;2023-01-16T08:04:55;2.70;99.90
6291;DHT22;3178;48.730;8.990;2023-01-16T08:07:21;2.80;99.90
6291;DHT22;3178;48.730;8.990;2023-01-16T08:09:46;2.80;99.90
6291;DHT22;3178;48.730;8.990;2023-01-16T08:12:12;2.80;99.90
6291;DHT22;3178;48.730;8.990;2023-01-16T08:14:37;2.80;99.90
6291;DHT22;3178;48.730;8.990;2023-01-16T08:17:04;2.80;99.90
6291;DHT22;3178;48.730;8.990;2023-01-16T08:19:30;2.80;99.90
6291;DHT22;3178;48.730;8.990;2023-01-16T08:21:56;2.90;99.90
6291;DHT22;3178;48.730;8.990;2023-01-16T08:24:21;2.90;99.90
6291;DHT22;3178;48.730;8.990;2023-01-16T08:26:49;2.90;99.90
6291;DHT22;3178;48.730;8.990;2023-01-16T08:29:14;2.90;99.90
6291;DHT22;3178;48.730;8.990;2023-01-16T08:31:40;2.90;99.90
6291;DHT22;3178;48.730;8.990;2023-01-16T08:34:05;2.90;99.90
6291;DHT22;3178;48.730;8.990;2023-01-16T08:36:31;2.90;99.90
6291;DHT22;3178;48.730;8.990;2023-01-16T08:38:57;2.90;99.90
6291;DHT22;3178;48.730;8.990;2023-01-16T08:41:22;2.90;99.90
6291;DHT22;3178;48.730;8.990;2023-01-16T08:44:07;2.90;99.90
6291;DHT22;3178;48.730;8.990;2023-01-16T08:47:13;2.90;99.90
6291;DHT22;3178;48.730;8.990;2023-01-16T08:49:58;2.80;99.90
6291;DHT22;3178;48.730;8.990;2023-01-16T08:52:42;2.90;99.90
6291;DHT22;3178;48.730;8.990;2023-01-16T08:55:08;2.90;99.90
6291;DHT22;3178;48.730;8.990;2023-01-16T08:57:34;2.90;99.90
6291;DHT22;3178;48.730;8.990;2023-01-16T09:00:00;2.90;99.90
6291;DHT22;3178;48.730;8.990;2023-01-16T09:02:27;2.90;99.90
6291;DHT22;3178;48.730;8.990;2023-01-16T09:04:52;2.90;99.90
6291;DHT22;3178;48.730;8.990;2023-01-16T09:07:20;2.80;99.90
6291;DHT22;3178;48.730;8.990;2023-01-16T09:09:46;2.80;99.90
6291;DHT22;3178;48.730;8.990;2023-01-16T09:12:13;2.80;99.90
6291;DHT22;3178;48.730;8.990;2023-01-16T09:14:58;2.80;99.90
6291;DHT22;3178;48.730;8.990;2023-01-16T09:17:25;2.80;99.90
6291;DHT22;3178;48.730;8.990;2023-01-16T09:19:51;2.80;99.90
6291;DHT22;3178;48.730;8.990;2023-01-16T09:22:17;2.90;99.90
6291;DHT22;3178;48.730;8.990;2023-01-16T09:24:43;2.90;99.90
6291;DHT22;3178;48.730;8.990;2023-01-16T09:27:09;2.90;99.90
6291;DHT22;3178;48.730;8.990;2023-01-16T09:29:35;2.90;99.90
6291;DHT22;3178;48.730;8.990;2023-01-16T09:32:00;3.00;99.90
6291;DHT22;3178;48.730;8.990;2023-01-16T09:34:32;3.00;99.90
6291;DHT22;3178;48.730;8.990;2023-01-16T09:36:58;3.20;99.90
6291;DHT22;3178;48.730;8.990;2023-01-16T09:39:24;3.20;99.90
6291;DHT22;3178;48.730;8.990;2023-01-16T09:42:00;3.30;99.90
6291;DHT22;3178;48.730;8.990;2023-01-16T09:44:50;3.40;99.90
6291;DHT22;3178;48.730;8.990;2023-01-16T09:47:21;3.50;99.90
6291;DHT22;3178;48.730;8.990;2023-01-16T09:49:53;3.60;99.90
6291;DHT22;3178;48.730;8.990;2023-01-16T09:52:24;3.70;99.90
6291;DHT22;3178;48.730;8.990;2023-01-16T09:55:33;3.70;99.90
6291;DHT22;3178;48.730;8.990;2023-01-16T09:58:20;3.80;99.90
6291;DHT22;3178;48.730;8.990;2023-01-16T10:03:28;3.80;99.90
6291;DHT22;3178;48.730;8.990;2023-01-16T10:08:49;3.90;99.90
6291;DHT22;3178;48.730;8.990;2023-01-16T10:11:27;3.90;99.90
6291;DHT22;3178;48.730;8.990;2023-01-16T10:25:26;4.00;99.90
6291;DHT22;3178;48.730;8.990;2023-01-16T10:28:16;4.00;99.90
6291;DHT22;3178;48.730;8.990;2023-01-16T10:31:14;4.00;99.90
6291;DHT22;3178;48.730;8.990;2023-01-16T10:34:08;4.00;99.90
6291;DHT22;3178;48.730;8.990;2023-01-16T10:36:39;3.90;99.90
6291;DHT22;3178;48.730;8.990;2023-01-16T10:39:09;3.90;99.90
6291;DHT22;3178;48.730;8.990;2023-01-16T10:41:40;3.80;99.90
6291;DHT22;3178;48.730;8.990;2023-01-16T10:44:39;3.80;99.90
6291;DHT22;3178;48.730;8.990;2023-01-16T10:50:13;3.80;99.90
6291;DHT22;3178;48.730;8.990;2023-01-16T10:52:39;3.90;99.90
6291;DHT22;3178;48.730;8.990;2023-01-16T10:55:06;3.90;99.90
6291;DHT22;3178;48.730;8.990;2023-01-16T10:57:32;4.10;99.90
6291;DHT22;3178;48.730;8.990;2023-01-16T11:00:03;4.30;99.90
6291;DHT22;3178;48.730;8.990;2023-01-16T11:02:38;4.40;99.90
6291;DHT22;3178;48.730;8.990;2023-01-16T11:05:31;4.50;99.90
6291;DHT22;3178;48.730;8.990;2023-01-16T11:08:06;4.60;99.90
6291;DHT22;3178;48.730;8.990;2023-01-16T11:10:33;4.60;99.90
6291;DHT22;3178;48.730;8.990;2023-01-16T11:12:59;4.60;99.90
6291;DHT22;3178;48.730;8.990;2023-01-16T11:16:04;4.60;99.90
6291;DHT22;3178;48.730;8.990;2023-01-16T11:18:49;4.60;99.90
6291;DHT22;3178;48.730;8.990;2023-01-16T11:21:31;4.60;99.90
6291;DHT22;3178;48.730;8.990;2023-01-16T11:24:14;4.70;99.90
6291;DHT22;3178;48.730;8.990;2023-01-16T11:26:47;4.70;99.90
6291;DHT22;3178;48.730;8.990;2023-01-16T11:29:17;4.60;99.90
6291;DHT22;3178;48.730;8.990;2023-01-16T11:31:48;4.60;99.90
6291;DHT22;3178;48.730;8.990;2023-01-16T11:34:15;4.70;99.90
6291;DHT22;3178;48.730;8.990;2023-01-16T11:36:41;4.60;99.90
6291;DHT22;3178;48.730;8.990;2023-01-16T11:39:18;4.60;99.90
6291;DHT22;3178;48.730;8.990;2023-01-16T11:41:48;4.60;99.90
6291;DHT22;3178;48.730;8.990;2023-01-16T11:44:23;4.60;99.90
6291;DHT22;3178;48.730;8.990;2023-01-16T11:47:14;4.50;99.90
6291;DHT22;3178;48.730;8.990;2023-01-16T11:49:48;4.60;99.90
6291;DHT22;3178;48.730;8.990;2023-01-16T11:52:19;4.60;99.90
6291;DHT22;3178;48.730;8.990;2023-01-16T11:54:59;4.60;99.90
6291;DHT22;3178;48.730;8.990;2023-01-16T11:57:51;4.60;99.90
6291;DHT22;3178;48.730;8.990;2023-01-16T12:03:49;4.60;99.90
6291;DHT22;3178;48.730;8.990;2023-01-16T12:06:32;4.70;99.90
6291;DHT22;3178;48.730;8.990;2023-01-16T12:14:29;4.60;99.90
6291;DHT22;3178;48.730;8.990;2023-01-16T12:19:54;4.60;99.90
6291;DHT22;3178;48.730;8.990;2023-01-16T12:22:34;4.50;99.90
6291;DHT22;3178;48.730;8.990;2023-01-16T12:27:40;4.50;99.90
6291;DHT22;3178;48.730;8.990;2023-01-16T12:30:20;4.50;99.90
6291;DHT22;3178;48.730;8.990;2023-01-16T12:39:23;4.60;99.90
6291;DHT22;3178;48.730;8.990;2023-01-16T12:58:08;4.70;99.90
6291;DHT22;3178;48.730;8.990;2023-01-16T13:00:41;4.70;99.90
6291;DHT22;3178;48.730;8.990;2023-01-16T13:03:39;4.80;99.90
6291;DHT22;3178;48.730;8.990;2023-01-16T13:06:13;4.80;99.90
6291;DHT22;3178;48.730;8.990;2023-01-16T13:08:45;4.90;99.90
6291;DHT22;3178;48.730;8.990;2023-01-16T13:11:20;5.00;99.90
6291;DHT22;3178;48.730;8.990;2023-01-16T13:14:09;5.10;99.90
6291;DHT22;3178;48.730;8.990;2023-01-16T13:17:00;5.10;99.90
6291;DHT22;3178;48.730;8.990;2023-01-16T13:19:31;5.30;99.90
6291;DHT22;3178;48.730;8.990;2023-01-16T13:22:06;5.40;99.90
6291;DHT22;3178;48.730;8.990;2023-01-16T13:24:50;5.50;99.90
6291;DHT22;3178;48.730;8.990;2023-01-16T13:27:23;5.80;99.90
6291;DHT22;3178;48.730;8.990;2023-01-16T13:29:54;5.90;99.90
6291;DHT22;3178;48.730;8.990;2023-01-16T13:32:28;5.80;99.90
6291;DHT22;3178;48.730;8.990;2023-01-16T13:35:18;5.90;99.90
6291;DHT22;3178;48.730;8.990;2023-01-16T13:43:03;6.40;99.90
6291;DHT22;3178;48.730;8.990;2023-01-16T13:45:52;6.60;99.90
6291;DHT22;3178;48.730;8.990;2023-01-16T13:48:21;6.50;99.90
6291;DHT22;3178;48.730;8.990;2023-01-16T13:51:14;6.40;99.90
6291;DHT22;3178;48.730;8.990;2023-01-16T13:53:41;6.50;99.90
6291;DHT22;3178;48.730;8.990;2023-01-16T13:56:15;6.50;99.90
6291;DHT22;3178;48.730;8.990;2023-01-16T13:58:46;6.60;99.90
6291;DHT22;3178;48.730;8.990;2023-01-16T14:06:58;6.10;99.90
6291;DHT22;3178;48.730;8.990;2023-01-16T14:23:02;5.30;99.90
6291;DHT22;3178;48.730;8.990;2023-01-16T14:25:53;5.20;99.90
6291;DHT22;3178;48.730;8.990;2023-01-16T14:28:19;5.10;99.90
6291;DHT22;3178;48.730;8.990;2023-01-16T14:30:46;5.00;99.90
6291;DHT22;3178;48.730;8.990;2023-01-16T14:33:16;5.00;99.90
6291;DHT22;3178;48.730;8.990;2023-01-16T14:35:48;4.80;99.90
6291;DHT22;3178;48.730;8.990;2023-01-16T14:38:18;4.80;99.90
6291;DHT22;3178;48.730;8.990;2023-01-16T14:40:56;4.70;99.90
6291;DHT22;3178;48.730;8.990;2023-01-16T14:47:07;4.60;99.90
6291;DHT22;3178;48.730;8.990;2023-01-16T14:50:00;4.60;99.90
6291;DHT22;3178;48.730;8.990;2023-01-16T14:52:48;4.60;99.90
6291;DHT22;3178;48.730;8.990;2023-01-16T14:58:37;4.50;99.90
6291;DHT22;3178;48.730;8.990;2023-01-16T15:01:07;4.40;99.90
6291;DHT22;3178;48.730;8.990;2023-01-16T15:03:59;4.40;99.90
6291;DHT22;3178;48.730;8.990;2023-01-16T15:06:32;4.40;99.90
6291;DHT22;3178;48.730;8.990;2023-01-16T15:09:00;4.40;99.90
6291;DHT22;3178;48.730;8.990;2023-01-16T15:11:30;4.40;99.90
6291;DHT22;3178;48.730;8.990;2023-01-16T15:14:20;4.40;99.90
6291;DHT22;3178;48.730;8.990;2023-01-16T15:20:09;4.50;99.90
6291;DHT22;3178;48.730;8.990;2023-01-16T15:22:59;4.70;99.90
6291;DHT22;3178;48.730;8.990;2023-01-16T15:28:23;4.50;99.90
6291;DHT22;3178;48.730;8.990;2023-01-16T15:30:51;4.50;99.90
6291;DHT22;3178;48.730;8.990;2023-01-16T15:33:28;4.40;99.90
6291;DHT22;3178;48.730;8.990;2023-01-16T15:36:26;4.40;99.90
6291;DHT22;3178;48.730;8.990;2023-01-16T15:38:58;4.30;99.90
6291;DHT22;3178;48.730;8.990;2023-01-16T15:41:29;4.10;99.90
6291;DHT22;3178;48.730;8.990;2023-01-16T15:44:17;4.00;99.90
6291;DHT22;3178;48.730;8.990;2023-01-16T15:47:26;4.00;99.90
6291;DHT22;3178;48.730;8.990;2023-01-16T15:50:06;3.90;99.90
6291;DHT22;3178;48.730;8.990;2023-01-16T15:52:34;3.90;99.90
6291;DHT22;3178;48.730;8.990;2023-01-16T15:55:21;3.80;99.90
6291;DHT22;3178;48.730;8.990;2023-01-16T15:57:54;3.70;99.90
6291;DHT22;3178;48.730;8.990;2023-01-16T16:00:33;3.60;99.90
6291;DHT22;3178;48.730;8.990;2023-01-16T16:03:01;3.60;99.90
6291;DHT22;3178;48.730;8.990;2023-01-16T16:05:30;3.60;99.90
6291;DHT22;3178;48.730;8.990;2023-01-16T16:07:57;3.60;99.90
6291;DHT22;3178;48.730;8.990;2023-01-16T16:10:24;3.50;99.90
6291;DHT22;3178;48.730;8.990;2023-01-16T16:13:13;3.50;99.90
6291;DHT22;3178;48.730;8.990;2023-01-16T16:16:02;3.50;99.90
6291;DHT22;3178;48.730;8.990;2023-01-16T16:18:53;3.40;99.90
6291;DHT22;3178;48.730;8.990;2023-01-16T16:21:21;3.40;99.90
6291;DHT22;3178;48.730;8.990;2023-01-16T16:24:01;3.40;99.90
6291;DHT22;3178;48.730;8.990;2023-01-16T16:26:28;3.40;99.90
6291;DHT22;3178;48.730;8.990;2023-01-16T16:28:54;3.40;99.90
6291;DHT22;3178;48.730;8.990;2023-01-16T16:31:48;3.30;99.90
6291;DHT22;3178;48.730;8.990;2023-01-16T16:34:22;3.40;99.90
6291;DHT22;3178;48.730;8.990;2023-01-16T16:36:51;3.30;99.90
6291;DHT22;3178;48.730;8.990;2023-01-16T16:41:59;3.20;99.90
6291;DHT22;3178;48.730;8.990;2023-01-16T16:44:46;3.20;99.90
6291;DHT22;3178;48.730;8.990;2023-01-16T16:47:42;3.10;99.90
6291;DHT22;3178;48.730;8.990;2023-01-16T16:50:32;3.00;99.90
6291;DHT22;3178;48.730;8.990;2023-01-16T16:53:30;2.90;99.90
6291;DHT22;3178;48.730;8.990;2023-01-16T16:56:10;2.90;99.90
6291;DHT22;3178;48.730;8.990;2023-01-16T16:58:44;2.90;99.90
6291;DHT22;3178;48.730;8.990;2023-01-16T17:01:12;2.80;99.90
6291;DHT22;3178;48.730;8.990;2023-01-16T17:03:38;2.80;99.90
6291;DHT22;3178;48.730;8.990;2023-01-16T17:06:05;2.80;99.90
6291;DHT22;3178;48.730;8.990;2023-01-16T17:08:30;2.80;99.90
6291;DHT22;3178;48.730;8.990;2023-01-16T17:10:56;2.80;99.90
6291;DHT22;3178;48.730;8.990;2023-01-16T17:13:23;2.80;99.90
6291;DHT22;3178;48.730;8.990;2023-01-16T17:15:55;2.80;99.90
6291;DHT22;3178;48.730;8.990;2023-01-16T17:18:22;2.90;99.90
6291;DHT22;3178;48.730;8.990;2023-01-16T17:20:48;2.80;99.90
6291;DHT22;3178;48.730;8.990;2023-01-16T17:23:18;2.80;99.90
6291;DHT22;3178;48.730;8.990;2023-01-16T17:25:44;2.80;99.90
6291;DHT22;3178;48.730;8.990;2023-01-16T17:28:10;2.80;99.90
6291;DHT22;3178;48.730;8.990;2023-01-16T17:30:36;2.80;99.90
6291;DHT22;3178;48.730;8.990;2023-01-16T17:33:11;2.80;99.90
6291;DHT22;3178;48.730;8.990;2023-01-16T17:35:39;2.80;99.90
6291;DHT22;3178;48.730;8.990;2023-01-16T17:38:19;2.80;99.90
6291;DHT22;3178;48.730;8.990;2023-01-16T17:40:45;2.80;99.90
6291;DHT22;3178;48.730;8.990;2023-01-16T17:43:15;2.90;99.90
6291;DHT22;3178;48.730;8.990;2023-01-16T17:46:03;2.80;99.90
6291;DHT22;3178;48.730;8.990;2023-01-16T17:48:30;2.90;99.90
6291;DHT22;3178;48.730;8.990;2023-01-16T17:50:57;2.90;99.90
6291;DHT22;3178;48.730;8.990;2023-01-16T17:53:27;2.90;99.90
6291;DHT22;3178;48.730;8.990;2023-01-16T17:55:55;2.90;99.90
6291;DHT22;3178;48.730;8.990;2023-01-16T17:58:30;2.90;99.90
6291;DHT22;3178;48.730;8.990;2023-01-16T18:01:14;2.90;99.90
6291;DHT22;3178;48.730;8.990;2023-01-16T18:03:44;2.90;99.90
6291;DHT22;3178;48.730;8.990;2023-01-16T18:06:13;2.90;99.90
6291;DHT22;3178;48.730;8.990;2023-01-16T18:08:39;2.90;99.90
6291;DHT22;3178;48.730;8.990;2023-01-16T18:11:05;2.80;99.90
6291;DHT22;3178;48.730;8.990;2023-01-16T18:13:51;2.80;99.90
6291;DHT22;3178;48.730;8.990;2023-01-16T18:16:35;2.80;99.90
6291;DHT22;3178;48.730;8.990;2023-01-16T18:19:20;2.80;99.90
6291;DHT22;3178;48.730;8.990;2023-01-16T18:21:45;2.80;99.90
6291;DHT22;3178;48.730;8.990;2023-01-16T18:24:31;2.80;99.90
6291;DHT22;3178;48.730;8.990;2023-01-16T18:26:58;2.80;99.90
6291;DHT22;3178;48.730;8.990;2023-01-16T18:29:24;2.80;99.90
6291;DHT22;3178;48.730;8.990;2023-01-16T18:31:50;2.70;99.90
6291;DHT22;3178;48.730;8.990;2023-01-16T18:34:35;2.70;99.90
6291;DHT22;3178;48.730;8.990;2023-01-16T18:37:00;2.70;99.90
6291;DHT22;3178;48.730;8.990;2023-01-16T18:39:26;2.70;99.90
6291;DHT22;3178;48.730;8.990;2023-01-16T18:42:10;2.70;99.90
6291;DHT22;3178;48.730;8.990;2023-01-16T18:45:15;2.80;99.90
6291;DHT22;3178;48.730;8.990;2023-01-16T18:48:00;2.80;99.90
6291;DHT22;3178;48.730;8.990;2023-01-16T18:50:44;2.80;99.90
6291;DHT22;3178;48.730;8.990;2023-01-16T18:53:31;2.80;99.90
6291;DHT22;3178;48.730;8.990;2023-01-16T18:56:20;2.70;99.90
6291;DHT22;3178;48.730;8.990;2023-01-16T18:59:18;2.80;99.90
6291;DHT22;3178;48.730;8.990;2023-01-16T19:04:39;2.80;99.90
6291;DHT22;3178;48.730;8.990;2023-01-16T19:07:07;2.80;99.90
6291;DHT22;3178;48.730;8.990;2023-01-16T19:09:35;2.80;99.90